Time;durP1;ratioP1;P1;durP2;ratioP2;P2;SDS_P1;SDS_P2;PMS_P1;PMS_P2;Temp;Humidity;BMP_temperature;BMP_pressure;BME280_temperature;BME280_humidity;BME280_pressure;Samples;Min_cycle;Max_cycle;Signal;HPM_P1;HPM_P2
2021/08/20 00:02:09;;;;;;;14.50;8.57;;;14.80;99.90;;;;;;5052916;28;20017;-68
2021/08/20 00:04:36;;;;;;;12.73;7.80;;;14.70;99.90;;;;;;5054308;28;20025;-68
2021/08/20 00:07:01;;;;;;;13.73;8.20;;;14.70;99.90;;;;;;5053971;28;20025;-68
2021/08/20 00:09:27;;;;;;;11.70;8.25;;;14.60;99.90;;;;;;5054226;28;20404;-68
2021/08/20 00:11:53;;;;;;;11.75;8.52;;;14.50;99.90;;;;;;5052783;28;20029;-68
2021/08/20 00:14:18;;;;;;;11.05;8.38;;;14.50;99.90;;;;;;5053584;28;20021;-68
2021/08/20 00:16:44;;;;;;;13.73;8.52;;;14.40;99.90;;;;;;5054060;28;20032;-68
2021/08/20 00:19:10;;;;;;;11.30;8.35;;;14.40;99.90;;;;;;5054073;28;20021;-68
2021/08/20 00:21:36;;;;;;;13.25;7.95;;;14.40;99.90;;;;;;5054082;28;20030;-68
2021/08/20 00:24:02;;;;;;;11.93;7.88;;;14.30;99.90;;;;;;5054025;28;20375;-68
2021/08/20 00:26:28;;;;;;;10.52;8.02;;;14.30;99.90;;;;;;5052209;28;20115;-68
2021/08/20 00:28:53;;;;;;;11.55;7.80;;;14.30;99.90;;;;;;5054004;28;20068;-68
2021/08/20 00:31:19;;;;;;;12.30;8.13;;;14.30;99.90;;;;;;5053498;28;20203;-68
2021/08/20 00:33:44;;;;;;;11.75;8.07;;;14.30;99.90;;;;;;5053894;28;20482;-68
2021/08/20 00:36:10;;;;;;;11.68;8.32;;;14.20;99.90;;;;;;5053429;28;20049;-68
2021/08/20 00:38:38;;;;;;;13.30;9.00;;;14.20;99.90;;;;;;5053922;28;20374;-68
2021/08/20 00:41:05;;;;;;;14.02;8.15;;;14.10;99.90;;;;;;5052761;28;20025;-68
2021/08/20 00:43:31;;;;;;;11.65;8.70;;;14.10;99.90;;;;;;5053554;28;20017;-68
2021/08/20 00:45:59;;;;;;;12.65;8.52;;;14.00;99.90;;;;;;5051995;28;20021;-68
2021/08/20 00:48:26;;;;;;;16.20;9.18;;;14.00;99.90;;;;;;5053813;28;20017;-68
2021/08/20 00:51:06;;;;;;;13.15;9.45;;;13.90;99.90;;;;;;5053453;28;20024;-68
2021/08/20 00:53:35;;;;;;;14.23;9.90;;;13.90;99.90;;;;;;5053444;28;20108;-68
2021/08/20 00:56:03;;;;;;;13.93;10.50;;;13.90;99.90;;;;;;5053622;28;20029;-68
2021/08/20 00:58:29;;;;;;;14.82;9.43;;;13.90;99.90;;;;;;5053709;28;20025;-68
2021/08/20 01:00:56;;;;;;;12.60;8.32;;;13.80;99.90;;;;;;5053684;28;20454;-68
2021/08/20 01:03:22;;;;;;;16.60;10.05;;;13.80;99.90;;;;;;5053636;28;20079;-68
2021/08/20 01:05:51;;;;;;;11.95;9.45;;;13.80;99.90;;;;;;5053382;28;20020;-68
2021/08/20 01:08:17;;;;;;;16.63;9.50;;;13.90;99.90;;;;;;5053640;28;20482;-68
2021/08/20 01:10:43;;;;;;;13.23;9.20;;;13.80;99.90;;;;;;5052457;28;20425;-68
2021/08/20 01:13:08;;;;;;;13.90;8.95;;;13.80;99.90;;;;;;5053572;28;20025;-68
2021/08/20 01:15:34;;;;;;;23.30;11.45;;;13.80;99.90;;;;;;5053282;28;20588;-68
2021/08/20 01:17:59;;;;;;;14.43;10.82;;;13.80;99.90;;;;;;5053458;28;20370;-68
2021/08/20 01:20:25;;;;;;;15.07;9.60;;;13.80;99.90;;;;;;5053512;28;20120;-68
2021/08/20 01:22:51;;;;;;;17.58;11.57;;;13.90;99.90;;;;;;5053488;28;20025;-68
2021/08/20 01:25:16;;;;;;;17.75;11.43;;;13.90;99.90;;;;;;5053204;28;20352;-68
2021/08/20 01:27:42;;;;;;;16.27;10.68;;;13.90;99.90;;;;;;5053398;28;20040;-68
2021/08/20 01:30:08;;;;;;;17.58;10.88;;;13.80;99.90;;;;;;5051967;28;20040;-68
2021/08/20 01:32:34;;;;;;;16.45;10.38;;;13.90;99.90;;;;;;5053135;28;20052;-68
2021/08/20 01:34:59;;;;;;;14.80;9.35;;;13.90;99.90;;;;;;5052178;28;20374;-68
2021/08/20 01:37:25;;;;;;;18.05;10.82;;;13.80;99.90;;;;;;5052650;28;20045;-68
2021/08/20 01:39:50;;;;;;;15.63;10.65;;;13.90;99.90;;;;;;5051873;28;20036;-68
2021/08/20 01:42:16;;;;;;;13.05;9.55;;;13.90;99.90;;;;;;5053359;28;20025;-68
2021/08/20 01:44:41;;;;;;;16.67;10.57;;;13.90;99.90;;;;;;5055550;28;20025;-68
2021/08/20 01:47:11;;;;;;;15.60;10.93;;;13.90;99.90;;;;;;5055473;28;20033;-68
2021/08/20 01:49:38;;;;;;;17.15;11.00;;;13.90;99.90;;;;;;5056871;28;20112;-68
2021/08/20 01:52:05;;;;;;;18.13;11.63;;;13.90;99.90;;;;;;5055021;28;20029;-67
2021/08/20 01:54:30;;;;;;;16.45;10.45;;;13.90;99.90;;;;;;5056735;28;20017;-68
2021/08/20 01:56:56;;;;;;;18.02;10.70;;;13.90;99.90;;;;;;5056396;28;20036;-68
2021/08/20 01:59:21;;;;;;;15.98;9.98;;;13.90;99.90;;;;;;5056412;28;20028;-68
2021/08/20 02:01:47;;;;;;;17.70;12.10;;;13.90;99.90;;;;;;5056395;28;20371;-68
2021/08/20 02:04:12;;;;;;;17.10;11.93;;;13.90;99.90;;;;;;5056342;28;20482;-68
2021/08/20 02:06:38;;;;;;;16.63;11.15;;;13.80;99.90;;;;;;5056541;28;20557;-68
2021/08/20 02:09:03;;;;;;;14.90;11.20;;;13.90;99.90;;;;;;5055928;28;20020;-68
2021/08/20 02:11:29;;;;;;;15.35;10.90;;;13.90;99.90;;;;;;5056475;28;20459;-68
2021/08/20 02:13:55;;;;;;;16.88;10.63;;;14.00;99.90;;;;;;5055254;28;20020;-68
2021/08/20 02:16:20;;;;;;;16.20;10.25;;;13.90;99.90;;;;;;5055996;28;20111;-68
2021/08/20 02:18:46;;;;;;;17.15;11.43;;;13.90;99.90;;;;;;5056061;28;20029;-68
2021/08/20 02:21:12;;;;;;;16.52;11.32;;;14.00;99.90;;;;;;5037851;28;20356;-68
2021/08/20 02:23:38;;;;;;;13.35;10.43;;;14.00;99.90;;;;;;5055958;28;20033;-68
2021/08/20 02:26:05;;;;;;;16.45;10.10;;;14.00;99.90;;;;;;5054767;28;20114;-68
2021/08/20 02:28:30;;;;;;;16.60;10.88;;;14.00;99.90;;;;;;5055628;28;20100;-68
2021/08/20 02:30:56;;;;;;;16.15;10.73;;;14.00;99.90;;;;;;5056110;28;20520;-68
2021/08/20 02:33:22;;;;;;;16.27;11.60;;;14.10;99.90;;;;;;5055504;28;20043;-68
2021/08/20 02:35:47;;;;;;;15.60;11.23;;;14.10;99.90;;;;;;5054810;28;20044;-68
2021/08/20 02:38:13;;;;;;;18.88;12.95;;;14.10;99.90;;;;;;5055449;28;20040;-68
2021/08/20 02:40:38;;;;;;;17.95;12.40;;;14.10;99.90;;;;;;5055384;28;20111;-68
2021/08/20 02:43:04;;;;;;;19.33;12.75;;;14.10;99.90;;;;;;5055355;28;20088;-68
2021/08/20 02:45:30;;;;;;;21.90;14.65;;;14.20;99.90;;;;;;5055841;28;20518;-68
2021/08/20 02:47:55;;;;;;;22.38;13.73;;;14.20;99.90;;;;;;5055775;28;20031;-68
2021/08/20 02:50:21;;;;;;;18.38;13.05;;;14.30;99.90;;;;;;5055711;28;20071;-68
2021/08/20 02:52:46;;;;;;;21.02;14.50;;;14.30;99.90;;;;;;5055428;28;20405;-68
2021/08/20 02:55:12;;;;;;;26.00;16.00;;;14.30;99.90;;;;;;5053823;28;20029;-68
2021/08/20 02:57:37;;;;;;;30.70;16.45;;;14.40;99.90;;;;;;5055520;28;20032;-67
2021/08/20 03:00:04;;;;;;;31.58;18.55;;;14.40;99.90;;;;;;5054130;28;20021;-68
2021/08/20 03:02:29;;;;;;;28.20;17.13;;;14.50;99.90;;;;;;5055224;28;20029;-68
2021/08/20 03:04:55;;;;;;;29.70;19.92;;;14.50;99.90;;;;;;5055450;28;20021;-68
2021/08/20 03:07:21;;;;;;;36.75;20.55;;;14.60;99.90;;;;;;5055077;28;20055;-68
2021/08/20 03:09:46;;;;;;;39.65;21.58;;;14.70;99.90;;;;;;5055357;28;20036;-68
2021/08/20 03:12:12;;;;;;;32.97;21.48;;;14.70;99.90;;;;;;5055277;28;20029;-68
2021/08/20 03:14:37;;;;;;;34.65;20.42;;;14.80;99.90;;;;;;5055245;28;20037;-68
2021/08/20 03:17:03;;;;;;;32.78;19.83;;;14.90;99.90;;;;;;5054857;28;20021;-68
2021/08/20 03:19:29;;;;;;;32.92;19.92;;;15.00;99.90;;;;;;5055106;28;20411;-68
2021/08/20 03:21:55;;;;;;;31.42;19.50;;;15.00;99.90;;;;;;5053340;28;20035;-68
2021/08/20 03:24:20;;;;;;;27.73;19.42;;;15.00;99.90;;;;;;5054524;28;20205;-68
2021/08/20 03:26:46;;;;;;;32.78;19.90;;;15.10;99.90;;;;;;5054752;28;20095;-68
2021/08/20 03:29:11;;;;;;;28.90;18.88;;;15.20;99.90;;;;;;5054960;28;20489;-68
2021/08/20 03:31:37;;;;;;;33.60;18.63;;;15.20;99.90;;;;;;5054952;28;20025;-68
2021/08/20 03:34:02;;;;;;;27.65;18.45;;;15.20;99.90;;;;;;5054851;28;20522;-68
2021/08/20 03:36:28;;;;;;;26.55;18.05;;;15.10;99.90;;;;;;5053031;28;20045;-68
2021/08/20 03:38:53;;;;;;;30.38;19.63;;;15.10;99.90;;;;;;5054560;28;20382;-68
2021/08/20 03:41:21;;;;;;;33.22;18.63;;;15.00;99.90;;;;;;5054180;28;20048;-68
2021/08/20 03:43:47;;;;;;;30.60;19.05;;;15.10;99.90;;;;;;5054662;28;20362;-68
2021/08/20 03:46:13;;;;;;;28.33;18.92;;;15.00;99.90;;;;;;5052872;28;20028;-67
2021/08/20 03:48:39;;;;;;;35.85;19.90;;;15.00;99.90;;;;;;5054628;28;20112;-68
2021/08/20 03:51:05;;;;;;;32.15;19.58;;;14.90;99.90;;;;;;5052774;28;20516;-68
2021/08/20 03:53:31;;;;;;;30.48;19.98;;;14.90;99.90;;;;;;5052963;28;20033;-68
2021/08/20 03:55:57;;;;;;;35.33;21.35;;;14.80;99.90;;;;;;5054362;28;20029;-68
2021/08/20 03:58:23;;;;;;;33.78;21.33;;;14.80;99.90;;;;;;5054447;28;20394;-68
2021/08/20 04:00:52;;;;;;;36.47;21.40;;;14.80;99.90;;;;;;5054372;28;20021;-68
2021/08/20 04:03:20;;;;;;;36.33;21.58;;;14.70;99.90;;;;;;5054102;28;20025;-68
2021/08/20 04:05:46;;;;;;;34.40;21.25;;;14.70;99.90;;;;;;5054291;28;20025;-68
2021/08/20 04:08:13;;;;;;;30.38;20.60;;;14.60;99.90;;;;;;5053571;28;20029;-68
2021/08/20 04:10:39;;;;;;;35.88;22.17;;;14.60;99.90;;;;;;5054221;28;20447;-68
2021/08/20 04:13:05;;;;;;;36.80;21.33;;;14.50;99.90;;;;;;5053032;28;20017;-68
2021/08/20 04:15:30;;;;;;;42.40;23.52;;;14.40;99.90;;;;;;5054138;28;20378;-68
2021/08/20 04:17:56;;;;;;;35.13;22.48;;;14.50;99.90;;;;;;5053790;28;20355;-68
2021/08/20 04:20:22;;;;;;;37.28;23.13;;;14.40;99.90;;;;;;5054094;28;20025;-68
2021/08/20 04:22:47;;;;;;;38.53;22.75;;;14.40;99.90;;;;;;5052288;28;20457;-68
2021/08/20 04:25:13;;;;;;;34.55;23.00;;;14.30;99.90;;;;;;5036030;28;20029;-68
2021/08/20 04:27:38;;;;;;;43.47;24.95;;;14.30;99.90;;;;;;5053727;28;20377;-68
2021/08/20 04:30:04;;;;;;;44.50;26.02;;;14.30;99.90;;;;;;5052157;28;20166;-68
2021/08/20 04:32:30;;;;;;;42.45;24.67;;;14.30;99.90;;;;;;5053696;28;20029;-68
2021/08/20 04:34:55;;;;;;;46.33;25.52;;;14.30;99.90;;;;;;5053929;28;20402;-68
2021/08/20 04:37:23;;;;;;;43.90;24.65;;;14.30;99.90;;;;;;5053214;28;20045;-68
2021/08/20 04:39:49;;;;;;;45.92;26.20;;;14.30;99.90;;;;;;5052667;28;20370;-68
2021/08/20 04:42:15;;;;;;;49.42;27.63;;;14.30;99.90;;;;;;5053830;28;20067;-68
2021/08/20 04:44:40;;;;;;;44.78;27.08;;;14.40;99.90;;;;;;5053520;28;20021;-68
2021/08/20 04:47:06;;;;;;;46.00;27.92;;;14.50;99.90;;;;;;5053530;28;20054;-68
2021/08/20 04:49:32;;;;;;;45.20;27.30;;;14.50;99.90;;;;;;5053766;28;20094;-68
2021/08/20 04:51:57;;;;;;;43.58;25.80;;;14.60;99.90;;;;;;5053756;28;20065;-68
2021/08/20 04:54:23;;;;;;;44.45;27.00;;;14.60;99.90;;;;;;5053462;28;20442;-68
2021/08/20 04:56:50;;;;;;;42.53;26.02;;;14.60;99.90;;;;;;5051826;28;20032;-68
2021/08/20 04:59:15;;;;;;;48.38;26.35;;;14.70;99.90;;;;;;5053418;28;20067;-68
2021/08/20 05:01:41;;;;;;;44.45;25.42;;;14.70;99.90;;;;;;5053702;28;20024;-68
2021/08/20 05:04:06;;;;;;;47.00;25.25;;;14.80;99.90;;;;;;5052512;28;20025;-68
2021/08/20 05:06:32;;;;;;;40.10;24.67;;;14.80;99.90;;;;;;5052458;28;20032;-68
2021/08/20 05:08:58;;;;;;;34.78;23.10;;;14.90;99.90;;;;;;5053331;28;20036;-68
2021/08/20 05:11:24;;;;;;;40.47;23.48;;;14.90;99.90;;;;;;5053576;28;20109;-68
2021/08/20 05:13:49;;;;;;;37.08;22.98;;;15.00;99.90;;;;;;5053250;28;20025;-68
2021/08/20 05:16:15;;;;;;;38.47;24.70;;;14.90;99.90;;;;;;5053148;28;20094;-68
2021/08/20 05:18:40;;;;;;;38.85;25.45;;;14.90;99.90;;;;;;5054229;28;20017;-68
2021/08/20 05:21:06;;;;;;;38.53;23.67;;;14.90;99.90;;;;;;5057359;28;20459;-68
2021/08/20 05:23:31;;;;;;;38.92;23.90;;;14.90;99.90;;;;;;5057331;28;20104;-68
2021/08/20 05:25:57;;;;;;;38.25;23.42;;;15.00;99.90;;;;;;5056134;28;20052;-68
2021/08/20 05:28:22;;;;;;;38.88;23.58;;;15.00;99.90;;;;;;5056000;28;20422;-68
2021/08/20 05:30:48;;;;;;;38.17;24.13;;;15.10;99.90;;;;;;5055335;28;20032;-68
2021/08/20 05:33:14;;;;;;;36.13;23.23;;;15.00;99.90;;;;;;5057062;28;20366;-68
2021/08/20 05:35:40;;;;;;;37.97;24.33;;;15.00;99.90;;;;;;5055242;28;20139;-68
2021/08/20 05:38:06;;;;;;;40.65;24.42;;;15.10;99.90;;;;;;5057006;28;20029;-68
2021/08/20 05:40:31;;;;;;;44.17;24.67;;;15.10;99.90;;;;;;5055157;28;20032;-68
2021/08/20 05:42:59;;;;;;;40.75;24.00;;;15.30;99.90;;;;;;5056924;28;20017;-68
2021/08/20 05:45:24;;;;;;;34.35;23.33;;;15.50;99.90;;;;;;5055896;28;20458;-68
2021/08/20 05:47:50;;;;;;;29.98;20.75;;;15.80;99.90;;;;;;5055612;28;20039;-68
2021/08/20 05:50:15;;;;;;;31.38;18.90;;;16.40;99.90;;;;;;5056807;28;20056;-68
2021/08/20 05:52:41;;;;;;;35.60;18.92;;;16.90;99.90;;;;;;5054794;28;20115;-68
2021/08/20 05:55:08;;;;;;;29.30;17.90;;;17.30;99.90;;;;;;5055160;28;20413;-68
2021/08/20 05:57:33;;;;;;;24.02;16.70;;;17.50;99.90;;;;;;5056545;28;20108;-68
2021/08/20 05:59:59;;;;;;;24.35;17.90;;;17.60;99.90;;;;;;5056600;28;20107;-68
2021/08/20 06:02:25;;;;;;;27.90;18.58;;;17.70;99.90;;;;;;5054998;28;20029;-68
2021/08/20 06:04:50;;;;;;;24.73;17.48;;;17.70;99.90;;;;;;5056430;28;20029;-68
2021/08/20 06:07:16;;;;;;;24.95;17.63;;;18.00;99.90;;;;;;5054608;28;20021;-68
2021/08/20 06:09:41;;;;;;;24.15;18.50;;;18.10;99.90;;;;;;5055715;28;20037;-68
2021/08/20 06:12:07;;;;;;;27.58;19.00;;;18.40;99.90;;;;;;5056011;28;20220;-68
2021/08/20 06:14:34;;;;;;;27.67;18.75;;;18.60;99.90;;;;;;5054866;28;20025;-68
2021/08/20 06:16:59;;;;;;;28.25;20.13;;;18.70;99.90;;;;;;5055584;28;20028;-68
2021/08/20 06:19:26;;;;;;;29.90;20.67;;;18.70;99.90;;;;;;5055791;28;20017;-68
2021/08/20 06:21:52;;;;;;;28.02;21.30;;;18.40;99.90;;;;;;5055746;28;20029;-68
2021/08/20 06:24:18;;;;;;;30.85;20.80;;;18.70;99.90;;;;;;5055402;28;20024;-68
2021/08/20 06:26:47;;;;;;;32.35;20.88;;;18.90;99.90;;;;;;5053660;28;20025;-68
2021/08/20 06:29:15;;;;;;;27.33;19.15;;;19.30;99.90;;;;;;5053750;28;20394;-68
2021/08/20 06:31:40;;;;;;;26.48;19.70;;;19.70;99.90;;;;;;5055627;28;20021;-68
2021/08/20 06:34:06;;;;;;;27.40;19.55;;;19.80;99.90;;;;;;5054220;28;20355;-68
2021/08/20 06:36:32;;;;;;;26.08;20.48;;;19.50;99.90;;;;;;5053784;28;20132;-68
2021/08/20 06:38:57;;;;;;;28.67;21.05;;;19.60;99.90;;;;;;5055747;28;20033;-67
2021/08/20 06:41:23;;;;;;;29.15;20.80;;;19.50;99.90;;;;;;5055218;28;20029;-68
2021/08/20 06:43:48;;;;;;;28.73;21.27;;;19.60;99.90;;;;;;5055133;28;20029;-68
2021/08/20 06:46:14;;;;;;;30.77;22.48;;;19.10;99.90;;;;;;5055353;28;20390;-68
2021/08/20 06:48:39;;;;;;;41.55;25.70;;;18.40;99.90;;;;;;5054551;28;20036;-68
2021/08/20 06:51:05;;;;;;;35.85;23.35;;;18.10;99.90;;;;;;5055228;28;20059;-68
2021/08/20 06:53:30;;;;;;;35.38;22.25;;;18.20;99.90;;;;;;5053585;28;20189;-68
2021/08/20 06:55:56;;;;;;;31.25;21.95;;;18.70;99.90;;;;;;5054996;28;20577;-68
2021/08/20 06:58:22;;;;;;;29.33;21.00;;;19.50;99.90;;;;;;5054896;28;20033;-68
2021/08/20 07:00:47;;;;;;;27.80;19.88;;;20.30;99.90;;;;;;5055097;28;20094;-67
2021/08/20 07:03:15;;;;;;;28.77;19.55;;;21.00;99.90;;;;;;5058346;28;20485;-67
2021/08/20 07:05:41;;;;;;;25.05;18.67;;;21.10;99.90;;;;;;5057559;28;20025;-67
2021/08/20 07:08:07;;;;;;;27.75;19.90;;;21.20;99.90;;;;;;5062612;28;20051;-67
2021/08/20 07:10:32;;;;;;;28.08;20.17;;;21.10;99.90;;;;;;5053995;28;20429;-68
2021/08/20 07:12:58;;;;;;;34.58;20.80;;;20.50;99.90;;;;;;5053600;28;20047;-67
2021/08/20 07:15:23;;;;;;;34.58;22.67;;;20.00;99.90;;;;;;5053767;28;20039;-68
2021/08/20 07:17:49;;;;;;;32.20;23.10;;;20.50;99.90;;;;;;5054225;28;20029;-68
2021/08/20 07:20:15;;;;;;;33.13;25.05;;;20.30;99.90;;;;;;5054053;28;20036;-68
2021/08/20 07:22:40;;;;;;;33.72;23.52;;;20.00;99.90;;;;;;5054605;28;20498;-68
2021/08/20 07:25:06;;;;;;;38.28;25.52;;;20.00;99.90;;;;;;5047456;28;20129;-68
2021/08/20 07:27:32;;;;;;;32.72;23.48;;;19.90;99.90;;;;;;5054462;28;20044;-68
2021/08/20 07:29:57;;;;;;;32.55;23.63;;;19.90;99.90;;;;;;5052948;28;20033;-67
2021/08/20 07:32:23;;;;;;;32.65;23.38;;;20.70;99.90;;;;;;5054223;28;20099;-68
2021/08/20 07:34:48;;;;;;;39.17;26.42;;;21.10;99.90;;;;;;5054576;28;20532;-68
2021/08/20 07:37:14;;;;;;;34.47;24.00;;;20.90;99.90;;;;;;5053112;28;20044;-68
2021/08/20 07:39:39;;;;;;;33.22;23.77;;;21.40;99.90;;;;;;5054505;28;20025;-68
2021/08/20 07:42:05;;;;;;;30.58;23.10;;;21.70;99.90;;;;;;5053784;28;20024;-68
2021/08/20 07:44:32;;;;;;;36.13;24.30;;;21.50;99.90;;;;;;5052583;28;20070;-68
2021/08/20 07:46:57;;;;;;;33.13;25.40;;;21.40;99.90;;;;;;5053746;28;20108;-68
2021/08/20 07:49:23;;;;;;;36.05;24.58;;;20.60;99.90;;;;;;5053941;28;20548;-68
2021/08/20 07:51:49;;;;;;;34.25;25.05;;;19.80;99.90;;;;;;5053308;28;20474;-68
2021/08/20 07:54:15;;;;;;;34.80;23.52;;;19.40;99.90;;;;;;5053386;28;20029;-68
2021/08/20 07:56:40;;;;;;;36.35;24.15;;;19.10;99.90;;;;;;5053608;28;20033;-68
2021/08/20 07:59:07;;;;;;;35.83;23.40;;;19.30;99.90;;;;;;5052427;28;20017;-68
2021/08/20 08:01:32;;;;;;;31.02;24.17;;;19.50;99.90;;;;;;5053666;28;20021;-68
2021/08/20 08:03:59;;;;;;;34.05;24.42;;;20.30;99.90;;;;;;5053071;28;20346;-69
2021/08/20 08:06:26;;;;;;;38.08;29.33;;;20.30;99.90;;;;;;5052631;28;20021;-68
2021/08/20 08:08:52;;;;;;;37.80;30.48;;;19.90;99.90;;;;;;5053735;28;20035;-68
2021/08/20 08:11:18;;;;;;;36.45;31.15;;;20.20;99.90;;;;;;5053366;28;20025;-68
2021/08/20 08:13:44;;;;;;;41.63;32.92;;;20.10;99.90;;;;;;5053989;28;20060;-68
2021/08/20 08:16:09;;;;;;;40.22;32.75;;;20.00;99.90;;;;;;5053194;28;20059;-68
2021/08/20 08:18:35;;;;;;;47.33;32.75;;;20.20;99.90;;;;;;5053488;28;20426;-68
2021/08/20 08:21:00;;;;;;;39.72;32.33;;;20.30;99.90;;;;;;5053646;28;20025;-68
2021/08/20 08:23:26;;;;;;;43.38;31.80;;;20.20;99.90;;;;;;5052430;28;20477;-68
2021/08/20 08:25:52;;;;;;;44.65;32.58;;;20.40;99.90;;;;;;5053264;28;20083;-68
2021/08/20 08:28:21;;;;;;;48.35;34.38;;;20.10;99.90;;;;;;5053138;28;20033;-68
2021/08/20 08:30:48;;;;;;;47.17;34.35;;;19.80;99.90;;;;;;5053647;28;20524;-68
2021/08/20 08:33:15;;;;;;;43.22;31.35;;;19.60;99.90;;;;;;5053517;28;20029;-68
2021/08/20 08:35:41;;;;;;;43.55;31.13;;;20.20;99.90;;;;;;5052978;28;20055;-68
2021/08/20 08:38:08;;;;;;;44.58;33.55;;;20.90;99.90;;;;;;5052241;28;20021;-68
2021/08/20 08:40:37;;;;;;;45.75;34.60;;;21.50;99.90;;;;;;5053711;28;20029;-68
2021/08/20 08:43:05;;;;;;;40.67;33.13;;;22.00;99.90;;;;;;5053423;28;20071;-68
2021/08/20 08:45:30;;;;;;;48.80;38.22;;;21.60;99.90;;;;;;5051976;28;20053;-68
2021/08/20 08:47:57;;;;;;;53.50;40.38;;;20.90;99.90;;;;;;5053616;28;20075;-67
2021/08/20 08:50:23;;;;;;;52.30;41.15;;;20.20;99.90;;;;;;5053279;28;20033;-68
2021/08/20 08:52:49;;;;;;;54.15;41.40;;;19.80;99.90;;;;;;5053016;28;20039;-68
2021/08/20 08:55:15;;;;;;;53.80;40.53;;;19.70;99.90;;;;;;5057401;28;20107;-68
2021/08/20 08:57:40;;;;;;;52.95;40.22;;;19.80;99.90;;;;;;5057623;28;20025;-68
2021/08/20 09:00:07;;;;;;;49.10;36.88;;;20.10;99.90;;;;;;5057684;28;20360;-68
2021/08/20 09:02:34;;;;;;;47.13;34.70;;;20.70;99.90;;;;;;5057606;28;20025;-68
2021/08/20 09:05:05;;;;;;;47.70;34.30;;;20.50;99.90;;;;;;5057567;28;20096;-68
2021/08/20 09:07:34;;;;;;;50.95;35.42;;;20.60;99.90;;;;;;5057523;28;20072;-68
2021/08/20 09:10:21;;;;;;;48.50;33.58;;;21.00;99.90;;;;;;5057151;28;20082;-68
2021/08/20 09:12:52;;;;;;;51.40;36.47;;;21.00;99.90;;;;;;5056802;28;20029;-68
2021/08/20 09:15:20;;;;;;;53.38;36.80;;;20.80;99.90;;;;;;5057322;28;20529;-68
2021/08/20 09:17:51;;;;;;;56.20;37.58;;;20.40;99.90;;;;;;5057095;28;20025;-68
2021/08/20 09:20:27;;;;;;;52.25;36.78;;;20.30;99.90;;;;;;5055664;28;20068;-68
2021/08/20 09:22:54;;;;;;;48.13;35.15;;;21.20;99.90;;;;;;5057330;28;20063;-68
2021/08/20 09:25:32;;;;;;;50.58;34.92;;;21.60;99.90;;;;;;5056987;28;20501;-68
2021/08/20 09:28:19;;;;;;;52.10;37.55;;;21.50;99.90;;;;;;5057138;28;20029;-68
2021/08/20 09:31:04;;;;;;;48.50;35.70;;;21.20;99.90;;;;;;5056405;28;20021;-68
2021/08/20 09:33:32;;;;;;;54.85;38.30;;;21.40;99.90;;;;;;5057123;28;20025;-68
2021/08/20 09:36:04;;;;;;;46.67;36.03;;;21.10;99.90;;;;;;5055551;28;20049;-68
2021/08/20 09:38:35;;;;;;;47.95;35.88;;;22.10;99.90;;;;;;5056453;28;20056;-68
2021/08/20 09:41:04;;;;;;;42.55;34.50;;;22.70;99.90;;;;;;5056490;28;20021;-68
2021/08/20 09:43:34;;;;;;;44.10;34.05;;;22.60;99.90;;;;;;5056368;28;20470;-68
2021/08/20 09:46:04;;;;;;;37.90;33.78;;;22.70;99.90;;;;;;5055752;28;20020;-68
2021/08/20 09:48:49;;;;;;;39.13;30.52;;;23.00;99.90;;;;;;5054979;28;20383;-68
2021/08/20 09:51:38;;;;;;;33.92;28.95;;;23.30;99.90;;;;;;5056746;28;20017;-68
2021/08/20 09:54:26;;;;;;;36.25;30.60;;;23.60;99.90;;;;;;5056589;28;20108;-68
2021/08/20 09:56:52;;;;;;;34.38;27.77;;;23.00;99.90;;;;;;5055027;28;20055;-68
2021/08/20 09:59:19;;;;;;;31.35;25.35;;;23.00;99.90;;;;;;5056630;28;20029;-68
2021/08/20 10:01:46;;;;;;;32.30;24.55;;;23.30;99.90;;;;;;5055156;28;20025;-68
2021/08/20 10:04:14;;;;;;;26.88;23.52;;;23.50;99.90;;;;;;5055516;28;20021;-68
2021/08/20 10:06:42;;;;;;;37.55;23.23;;;23.50;99.90;;;;;;5055073;28;20381;-68
2021/08/20 10:09:09;;;;;;;25.52;21.38;;;22.60;99.90;;;;;;5055950;28;20120;-68
2021/08/20 10:11:39;;;;;;;27.30;22.52;;;22.60;99.90;;;;;;5054942;28;20029;-68
2021/08/20 10:14:05;;;;;;;27.50;23.33;;;22.30;99.90;;;;;;5054722;28;20025;-68
2021/08/20 10:16:33;;;;;;;27.77;22.65;;;22.30;99.90;;;;;;5054725;28;20127;-68
2021/08/20 10:19:00;;;;;;;30.75;24.23;;;22.10;99.90;;;;;;5054619;28;20075;-68
2021/08/20 10:21:28;;;;;;;28.60;24.20;;;22.00;99.90;;;;;;5054544;28;20147;-68
2021/08/20 10:23:53;;;;;;;28.50;23.83;;;21.80;99.90;;;;;;5054454;28;20463;-68
2021/08/20 10:26:21;;;;;;;29.10;21.85;;;22.10;99.90;;;;;;5053730;28;20040;-68
2021/08/20 10:28:47;;;;;;;22.35;19.77;;;23.00;99.90;;;;;;5056084;28;20018;-68
2021/08/20 10:31:14;;;;;;;26.00;21.35;;;22.40;99.90;;;;;;5055490;28;20171;-68
2021/08/20 10:33:40;;;;;;;32.47;24.25;;;22.20;99.90;;;;;;5054455;28;20024;-68
2021/08/20 10:36:06;;;;;;;30.70;23.33;;;22.00;99.90;;;;;;5051044;28;20430;-68
2021/08/20 10:41:18;;;;;;;25.92;20.80;;;21.90;99.90;;;;;;5111682;27;20442;-68
2021/08/20 10:44:15;;;;;;;26.40;21.08;;;22.40;99.90;;;;;;5110038;28;20019;-67
2021/08/20 10:49:20;;;;;;;23.55;19.40;;;22.70;99.90;;;;;;5090662;28;20138;-68
2021/08/20 10:57:42;;;;;;;21.38;17.42;;;22.60;99.90;;;;;;5112121;27;20636;-67
2021/08/20 11:00:22;;;;;;;25.63;19.67;;;22.00;99.90;;;;;;5110607;28;20381;-67
2021/08/20 11:02:49;;;;;;;21.80;17.45;;;21.70;99.90;;;;;;5109428;28;20024;-68
2021/08/20 11:05:15;;;;;;;25.02;17.98;;;22.00;99.90;;;;;;5111451;28;20031;-68
2021/08/20 11:07:44;;;;;;;22.23;17.73;;;22.10;99.90;;;;;;5109928;28;20024;-68
2021/08/20 11:10:14;;;;;;;20.75;16.25;;;22.20;99.90;;;;;;5110701;28;20469;-68
2021/08/20 11:18:03;;;;;;;20.63;17.00;;;22.50;99.90;;;;;;5111509;27;20299;-68
2021/08/20 11:20:46;;;;;;;20.88;17.08;;;22.90;99.90;;;;;;5111111;28;20024;-69
2021/08/20 11:25:50;;;;;;;17.17;13.13;;;22.60;99.90;;;;;;5112135;27;20611;-68
2021/08/20 11:28:34;;;;;;;22.83;16.30;;;22.60;99.90;;;;;;5111241;28;20536;-69
2021/08/20 11:31:15;;;;;;;20.95;16.77;;;22.50;99.90;;;;;;5111846;28;20024;-68
2021/08/20 11:33:46;;;;;;;23.10;17.85;;;22.90;99.90;;;;;;5111747;28;20036;-69
2021/08/20 11:36:16;;;;;;;20.13;16.85;;;23.20;99.90;;;;;;5111676;28;20024;-67
2021/08/20 11:38:53;;;;;;;22.00;17.45;;;23.30;99.90;;;;;;5111173;28;20055;-69
2021/08/20 11:41:25;;;;;;;23.92;18.40;;;23.20;99.90;;;;;;5109664;28;20111;-67
2021/08/20 11:44:01;;;;;;;24.58;19.70;;;23.10;99.90;;;;;;5111330;28;20024;-69
2021/08/20 11:46:30;;;;;;;24.20;19.13;;;22.80;99.90;;;;;;5111433;28;20504;-68
2021/08/20 11:48:58;;;;;;;24.02;19.75;;;22.70;99.90;;;;;;5111390;28;20453;-68
2021/08/20 11:51:29;;;;;;;24.83;20.17;;;22.80;99.90;;;;;;5111272;28;20012;-68
2021/08/20 11:53:56;;;;;;;26.27;20.33;;;23.20;99.90;;;;;;5111246;28;20024;-68
2021/08/20 11:56:22;;;;;;;21.83;18.80;;;23.00;99.90;;;;;;5110047;28;20107;-68
2021/08/20 11:58:48;;;;;;;19.95;17.85;;;23.10;99.90;;;;;;5110945;28;20074;-68
2021/08/20 12:01:28;;;;;;;18.70;16.67;;;23.50;99.90;;;;;;5110960;28;20035;-68
2021/08/20 12:03:57;;;;;;;16.25;14.65;;;23.90;99.90;;;;;;5110827;28;20149;-69
2021/08/20 12:06:25;;;;;;;14.85;13.32;;;24.50;99.90;;;;;;5111132;28;20068;-68
2021/08/20 12:08:55;;;;;;;15.43;13.82;;;24.30;99.90;;;;;;5111079;28;20020;-69
2021/08/20 12:11:22;;;;;;;14.98;12.80;;;23.90;99.90;;;;;;5110973;28;20042;-68
2021/08/20 12:13:50;;;;;;;13.65;12.23;;;24.00;99.90;;;;;;5110691;28;20019;-69
2021/08/20 12:19:13;;;;;;;12.77;11.48;;;23.90;99.90;;;;;;5112184;27;20350;-67
2021/08/20 12:21:39;;;;;;;13.15;11.18;;;23.10;99.90;;;;;;5110666;28;20040;-67
2021/08/20 12:24:06;;;;;;;14.10;12.15;;;22.90;99.90;;;;;;5111223;28;20023;-68
2021/08/20 12:26:32;;;;;;;13.60;11.35;;;22.80;99.90;;;;;;5110739;28;20487;-67
2021/08/20 12:28:57;;;;;;;12.90;11.10;;;22.70;99.90;;;;;;5111160;28;20389;-68
2021/08/20 12:31:25;;;;;;;13.50;11.40;;;22.70;99.90;;;;;;5109601;28;20032;-68
2021/08/20 12:34:06;;;;;;;15.15;10.40;;;22.70;99.90;;;;;;5109949;28;20031;-68
2021/08/20 12:36:32;;;;;;;13.07;10.45;;;22.60;99.90;;;;;;5109557;28;20020;-68
2021/08/20 12:39:14;;;;;;;12.73;10.35;;;22.60;99.90;;;;;;5109493;28;20051;-68
2021/08/20 12:41:41;;;;;;;14.95;10.43;;;22.70;99.90;;;;;;5108586;28;20020;-68
2021/08/20 12:44:08;;;;;;;12.60;10.82;;;23.00;99.90;;;;;;5109473;28;20473;-68
2021/08/20 12:46:39;;;;;;;16.20;11.43;;;23.10;99.90;;;;;;5110414;28;20028;-68
2021/08/20 12:49:06;;;;;;;12.85;9.48;;;23.00;99.90;;;;;;5111057;28;20073;-68
2021/08/20 12:51:32;;;;;;;14.57;11.10;;;22.90;99.90;;;;;;5110714;28;20465;-68